ニューヨーク/JFK の空港の天気 - METARとTAF

ジョン・F・ケネディ国際空港 ( KJFK / JFK ) - アメリカ合衆国 ニューヨーク州ニューヨーク
飛行場実況気象(Metar)
観測時間07/21 19:51 EDT (07/21 23:51 UTC)
風向・風速西 6m/s
視程10km以上
天気現象
少しの雲 雲底高度 2130m
少しの雲 雲底高度 5490m
全天の8割程度の雲 雲底高度 7920m
気温32.2℃
湿度47%
気圧1011hPa
METARKJFK 212351Z 27012KT 10SM FEW070 FEW180 BKN260 32/19 A2986 RMK AO2 SLP110 T03220194 10350 20306 55002
過去の天気等 Google飛行場航空写真 Wunderground天気予報

過去48時間のMETAR

飛行場予報(TAF)
発表時間: 7/21 19:30 EDT (7/21 23:30 UTC)
予報対象時間: 21日20時 EDT ~ 23日2時 EDT
風向・風速南西 5m/s
視程10km以上
少しの雲 雲底高度 2,130m
全天の8割程度の雲 雲底高度 7,920m
22日3時 EDT から
風向・風速北 3m/s
視程10km以上
全天の4割程度の雲 雲底高度 1,830m
22日10時 EDT から
風向・風速東 3m/s
視程10km以上
少しの雲 雲底高度 1,830m
22日14時 EDT から
風向・風速南 4m/s
視程10km以上
全天の4割程度の雲 雲底高度 1,520m
全天の8割程度の雲 雲底高度 6,100m
22日19時 EDT から
風向・風速南 3m/s
視程10km以上
全天の4割程度の雲 雲底高度 1,520m
全天を覆う雲 雲底高度 3,660m
KJFK 212330Z 2200/2306 22010KT P6SM FEW070 BKN260
FM220700 35005KT P6SM SCT060
FM221400 10006KT P6SM FEW060
FM221800 19008KT P6SM SCT050 BKN200
FM222300 17006KT P6SM SCT050 OVC120